createdAt,value
2023-03-05T00:01:25.836Z,2.20
2023-03-05T00:03:53.404Z,1.65
2023-03-05T00:06:24.117Z,1.50
2023-03-05T00:08:53.302Z,1.73
2023-03-05T00:11:20.482Z,1.40
2023-03-05T00:13:47.540Z,1.38
2023-03-05T00:16:15.144Z,1.65
2023-03-05T00:18:42.278Z,1.58
2023-03-05T00:21:21.489Z,1.90
2023-03-05T00:23:50.606Z,1.70
2023-03-05T00:26:18.556Z,1.83
2023-03-05T00:28:49.849Z,1.55
2023-03-05T00:31:17.574Z,1.50
2023-03-05T00:33:44.797Z,1.73
2023-03-05T00:36:11.897Z,1.35
2023-03-05T00:38:38.946Z,1.40
2023-03-05T00:41:06.062Z,2.33
2023-03-05T00:43:33.096Z,1.50
2023-03-05T00:46:00.175Z,1.52
2023-03-05T00:48:27.256Z,1.55
2023-03-05T00:50:54.418Z,1.25
2023-03-05T00:53:21.503Z,1.33
2023-03-05T00:55:48.735Z,1.65
2023-03-05T00:58:15.793Z,1.60
2023-03-05T01:00:42.927Z,1.23
2023-03-05T01:03:10.038Z,1.38
2023-03-05T01:05:37.308Z,1.50
2023-03-05T01:08:04.431Z,1.63
2023-03-05T01:10:31.603Z,1.50
2023-03-05T01:12:58.647Z,1.27
2023-03-05T01:15:25.695Z,1.00
2023-03-05T01:17:52.794Z,1.42
2023-03-05T01:20:20.574Z,1.80
2023-03-05T01:22:47.654Z,1.70
2023-03-05T01:25:15.423Z,1.40
2023-03-05T01:27:42.535Z,1.35
2023-03-05T01:30:09.823Z,1.50
2023-03-05T01:32:36.869Z,1.23
2023-03-05T01:35:04.211Z,1.48
2023-03-05T01:37:31.276Z,1.50
2023-03-05T01:39:58.324Z,1.48
2023-03-05T01:42:25.348Z,1.67
2023-03-05T01:45:02.368Z,1.65
2023-03-05T01:47:29.492Z,1.50
2023-03-05T01:49:56.597Z,1.60
2023-03-05T01:52:24.010Z,1.60
2023-03-05T01:54:54.906Z,1.40
2023-03-05T01:57:22.676Z,1.40
2023-03-05T01:59:50.915Z,1.40
2023-03-05T02:02:18.074Z,1.50
2023-03-05T02:04:54.350Z,1.30
2023-03-05T02:07:21.492Z,1.38
2023-03-05T02:09:48.687Z,1.50
2023-03-05T02:12:15.846Z,1.80
2023-03-05T02:14:43.398Z,1.35
2023-03-05T02:17:10.983Z,1.50
2023-03-05T02:19:48.206Z,1.23
2023-03-05T02:22:15.800Z,1.10
2023-03-05T02:24:42.830Z,1.55
2023-03-05T02:27:09.995Z,1.70
2023-03-05T02:29:37.903Z,1.60
2023-03-05T02:32:05.314Z,1.85
2023-03-05T02:34:32.410Z,1.60
2023-03-05T02:36:59.449Z,1.40
2023-03-05T02:39:26.620Z,1.73
2023-03-05T02:41:53.671Z,1.48
2023-03-05T02:44:20.744Z,1.67
2023-03-05T02:46:47.884Z,1.77
2023-03-05T02:49:14.942Z,1.40
2023-03-05T02:51:41.993Z,1.33
2023-03-05T02:54:09.060Z,1.20
2023-03-05T02:56:38.155Z,1.50
2023-03-05T02:59:05.288Z,1.20
2023-03-05T03:01:32.357Z,1.50
2023-03-05T03:03:59.576Z,1.50
2023-03-05T03:06:26.917Z,1.20
2023-03-05T03:08:54.019Z,1.27
2023-03-05T03:11:21.475Z,1.10
2023-03-05T03:13:48.585Z,1.20
2023-03-05T03:16:15.884Z,1.73
2023-03-05T03:18:44.230Z,1.00
2023-03-05T03:21:16.950Z,1.20
2023-03-05T03:23:44.030Z,1.45
2023-03-05T03:26:11.099Z,0.90
2023-03-05T03:28:38.193Z,1.02
2023-03-05T03:31:05.366Z,0.90
2023-03-05T03:33:32.427Z,1.00
2023-03-05T03:35:59.534Z,1.00
2023-03-05T03:38:26.840Z,1.00
2023-03-05T03:40:53.972Z,0.70
2023-03-05T03:43:21.000Z,1.00
2023-03-05T03:45:48.309Z,0.70
2023-03-05T03:48:15.451Z,0.80
2023-03-05T03:50:42.598Z,0.90
2023-03-05T03:53:12.896Z,0.60
2023-03-05T03:55:39.942Z,0.93
2023-03-05T03:58:07.028Z,0.90
2023-03-05T04:00:34.119Z,0.90
2023-03-05T04:03:01.217Z,0.60
2023-03-05T04:05:28.307Z,0.70
2023-03-05T04:07:55.490Z,0.93
2023-03-05T04:10:22.560Z,0.77
2023-03-05T04:12:49.751Z,1.02
2023-03-05T04:15:16.782Z,0.60
2023-03-05T04:17:43.865Z,1.08
2023-03-05T04:20:11.267Z,0.95
2023-03-05T04:22:38.430Z,1.02
2023-03-05T04:25:06.577Z,0.63
2023-03-05T04:27:40.487Z,0.85
2023-03-05T04:30:08.496Z,0.90
2023-03-05T04:32:35.594Z,0.88
2023-03-05T04:35:02.662Z,0.60
2023-03-05T04:37:29.665Z,0.90
2023-03-05T04:39:56.785Z,1.35
2023-03-05T04:42:23.993Z,0.70
2023-03-05T04:44:51.305Z,0.90
2023-03-05T04:47:18.427Z,0.80
2023-03-05T04:49:45.585Z,0.50
2023-03-05T04:52:13.374Z,0.70
2023-03-05T04:54:40.535Z,0.70
2023-03-05T04:57:07.689Z,0.90
2023-03-05T04:59:34.859Z,0.70
2023-03-05T05:02:01.993Z,0.90
2023-03-05T05:04:29.809Z,1.17
2023-03-05T05:06:57.324Z,0.63
2023-03-05T05:09:24.659Z,0.80
2023-03-05T05:11:51.687Z,0.80
2023-03-05T05:14:18.789Z,0.63
2023-03-05T05:16:45.800Z,0.80
2023-03-05T05:19:12.916Z,0.85
2023-03-05T05:21:40.152Z,1.08
2023-03-05T05:24:07.306Z,0.70
2023-03-05T05:26:34.354Z,1.00
2023-03-05T05:29:01.409Z,0.70
2023-03-05T05:31:28.508Z,0.70
2023-03-05T05:33:55.585Z,1.17
2023-03-05T05:36:22.827Z,0.70
2023-03-05T05:38:49.874Z,0.70
2023-03-05T05:41:17.332Z,0.88
2023-03-05T05:43:44.462Z,0.80
2023-03-05T05:46:12.835Z,0.75
2023-03-05T05:48:40.092Z,0.98
2023-03-05T05:51:07.833Z,0.90
2023-03-05T05:53:34.937Z,0.80
2023-03-05T05:56:02.032Z,1.10
2023-03-05T05:58:29.119Z,0.85
2023-03-05T06:00:56.189Z,0.80
2023-03-05T06:03:23.346Z,1.15
2023-03-05T06:05:51.989Z,0.77
2023-03-05T06:08:19.144Z,0.88
2023-03-05T06:10:46.201Z,0.93
2023-03-05T06:13:13.260Z,0.90
2023-03-05T06:15:40.351Z,0.90
2023-03-05T06:18:07.420Z,0.85
2023-03-05T06:20:34.510Z,0.95
2023-03-05T06:23:01.601Z,0.95
2023-03-05T06:25:28.681Z,0.95
2023-03-05T06:27:55.721Z,1.70
2023-03-05T06:30:22.917Z,1.23
2023-03-05T06:32:50.037Z,1.30
2023-03-05T06:35:17.146Z,0.73
2023-03-05T06:37:44.802Z,0.80
2023-03-05T06:40:12.268Z,0.98
2023-03-05T06:42:39.347Z,0.90
2023-03-05T06:45:06.664Z,1.10
2023-03-05T06:47:33.889Z,0.95
2023-03-05T06:50:00.930Z,0.80
2023-03-05T06:52:27.964Z,1.00
2023-03-05T06:54:55.832Z,1.10
2023-03-05T06:57:23.412Z,1.20
2023-03-05T06:59:50.565Z,1.00
2023-03-05T07:02:19.122Z,1.27
2023-03-05T07:04:47.285Z,1.13
2023-03-05T07:07:14.287Z,1.23
2023-03-05T07:09:44.017Z,1.15
2023-03-05T07:12:11.818Z,1.17
2023-03-05T07:14:39.294Z,1.35
2023-03-05T07:17:07.005Z,1.50
2023-03-05T07:19:34.099Z,1.67
2023-03-05T07:22:01.177Z,1.50
2023-03-05T07:24:29.933Z,1.90
2023-03-05T07:26:57.472Z,1.90
2023-03-05T07:29:25.111Z,2.22
2023-03-05T07:31:52.218Z,2.00
2023-03-05T07:34:19.274Z,1.83
2023-03-05T07:36:46.917Z,2.40
2023-03-05T07:39:14.055Z,2.65
2023-03-05T07:41:41.170Z,2.70
2023-03-05T07:44:08.179Z,2.78
2023-03-05T07:46:35.406Z,3.03
2023-03-05T07:49:02.517Z,3.45
2023-03-05T07:51:29.671Z,3.65
2023-03-05T07:53:57.458Z,3.83
2023-03-05T07:56:25.326Z,4.13
2023-03-05T07:58:52.731Z,4.35
2023-03-05T08:01:19.864Z,4.47
2023-03-05T08:03:47.036Z,4.30
2023-03-05T08:06:14.186Z,4.70
2023-03-05T08:08:41.295Z,5.22
2023-03-05T08:11:12.277Z,4.65
2023-03-05T08:13:39.409Z,5.60
2023-03-05T08:16:07.109Z,9.88
2023-03-05T08:18:34.509Z,6.47
2023-03-05T08:21:01.807Z,5.38
2023-03-05T08:23:28.934Z,5.65
2023-03-05T08:25:56.081Z,5.47
2023-03-05T08:28:23.103Z,5.72
2023-03-05T08:30:50.359Z,5.75
2023-03-05T08:33:17.715Z,5.70
2023-03-05T08:35:44.834Z,5.50
2023-03-05T08:38:12.028Z,5.82
2023-03-05T08:40:39.073Z,5.68
2023-03-05T08:43:07.211Z,5.55
2023-03-05T08:45:34.352Z,5.45
2023-03-05T08:48:01.434Z,6.07
2023-03-05T08:50:28.547Z,5.97
2023-03-05T08:52:56.936Z,5.22
2023-03-05T08:55:24.063Z,5.20
2023-03-05T08:57:51.100Z,5.57
2023-03-05T09:00:18.399Z,5.50
2023-03-05T09:02:45.547Z,5.55
2023-03-05T09:05:12.593Z,5.82
2023-03-05T09:07:39.788Z,4.80
2023-03-05T09:10:07.295Z,4.85
2023-03-05T09:12:34.340Z,5.03
2023-03-05T09:15:01.552Z,5.10
2023-03-05T09:17:28.618Z,7.10
2023-03-05T09:19:55.706Z,5.22
2023-03-05T09:22:22.759Z,6.40
2023-03-05T09:24:49.815Z,6.25
2023-03-05T09:27:16.925Z,6.22
2023-03-05T09:29:43.978Z,6.20
2023-03-05T09:32:11.198Z,6.10
2023-03-05T09:34:38.623Z,6.13
2023-03-05T09:37:05.656Z,6.75
2023-03-05T09:39:32.713Z,6.57
2023-03-05T09:42:18.651Z,6.75
2023-03-05T09:44:48.683Z,7.25
2023-03-05T09:47:18.568Z,7.55
2023-03-05T09:50:00.697Z,7.72
2023-03-05T09:52:32.341Z,10.40
2023-03-05T09:54:59.486Z,7.60
2023-03-05T09:57:29.566Z,8.25
2023-03-05T09:59:56.670Z,7.32
2023-03-05T10:02:33.512Z,7.75
2023-03-05T10:05:20.809Z,7.40
2023-03-05T10:07:54.625Z,7.50
2023-03-05T10:10:29.000Z,7.50
2023-03-05T10:13:00.617Z,7.13
2023-03-05T10:15:32.180Z,7.10
2023-03-05T10:18:08.181Z,7.53
2023-03-05T10:20:42.437Z,6.82
2023-03-05T10:23:09.468Z,7.50
2023-03-05T10:25:48.610Z,6.68
2023-03-05T10:28:17.851Z,5.95
2023-03-05T10:30:51.212Z,5.50
2023-03-05T10:33:28.253Z,4.18
2023-03-05T10:36:01.392Z,4.00
2023-03-05T10:38:35.088Z,3.58
2023-03-05T10:41:04.391Z,3.08
2023-03-05T10:43:34.571Z,3.20
2023-03-05T10:46:01.642Z,3.38
2023-03-05T10:48:45.914Z,3.30
2023-03-05T10:51:14.213Z,3.10
2023-03-05T10:53:57.838Z,3.70
2023-03-05T10:56:25.888Z,3.50
2023-03-05T10:58:53.658Z,3.88
2023-03-05T11:01:22.149Z,3.10
2023-03-05T11:03:59.286Z,6.40
2023-03-05T11:06:37.441Z,2.42
2023-03-05T11:09:15.549Z,2.67
2023-03-05T11:11:42.550Z,2.20
2023-03-05T11:14:23.055Z,2.25
2023-03-05T11:16:50.852Z,2.40
2023-03-05T11:19:22.265Z,2.25
2023-03-05T11:22:05.676Z,2.20
2023-03-05T11:24:33.756Z,2.25
2023-03-05T11:27:00.882Z,2.30
2023-03-05T11:29:29.036Z,3.92
2023-03-05T11:31:56.137Z,2.47
2023-03-05T11:34:31.485Z,3.10
2023-03-05T11:36:58.551Z,2.10
2023-03-05T11:39:26.103Z,2.85
2023-03-05T11:41:53.192Z,2.03
2023-03-05T11:44:22.368Z,1.85
2023-03-05T11:46:51.363Z,1.95
2023-03-05T11:49:22.356Z,1.98
2023-03-05T11:51:58.451Z,2.38
2023-03-05T11:54:27.316Z,1.92
2023-03-05T11:56:54.362Z,2.63
2023-03-05T11:59:23.750Z,2.60
2023-03-05T12:01:51.619Z,2.50
2023-03-05T12:04:19.309Z,2.70
2023-03-05T12:06:47.092Z,3.03
2023-03-05T12:09:17.200Z,2.42
2023-03-05T12:11:44.712Z,2.85
2023-03-05T12:14:24.031Z,2.60
2023-03-05T12:17:09.910Z,3.30
2023-03-05T12:19:43.281Z,3.05
2023-03-05T12:22:25.974Z,2.50
2023-03-05T12:24:53.083Z,2.88
2023-03-05T12:27:35.098Z,3.00
2023-03-05T12:32:29.408Z,2.95
2023-03-05T12:34:57.710Z,2.75
2023-03-05T12:37:27.529Z,2.67
2023-03-05T12:40:04.343Z,2.75
2023-03-05T12:42:31.414Z,2.50
2023-03-05T12:45:14.450Z,2.67
2023-03-05T12:47:42.251Z,2.80
2023-03-05T12:50:27.739Z,2.53
2023-03-05T12:52:58.518Z,2.80
2023-03-05T12:55:25.512Z,3.08
2023-03-05T12:57:59.204Z,2.80
2023-03-05T13:00:27.060Z,2.85
2023-03-05T13:02:58.651Z,3.00
2023-03-05T13:05:32.895Z,3.35
2023-03-05T13:08:15.548Z,3.15
2023-03-05T13:10:43.194Z,4.95
2023-03-05T13:13:14.127Z,3.90
2023-03-05T13:15:41.176Z,3.50
2023-03-05T13:18:12.942Z,4.53
2023-03-05T13:20:40.684Z,3.85
2023-03-05T13:23:23.054Z,3.50
2023-03-05T13:26:08.616Z,3.58
2023-03-05T13:28:37.573Z,4.35
2023-03-05T13:31:05.209Z,3.88
2023-03-05T13:33:33.386Z,3.83
2023-03-05T13:36:00.556Z,3.95
2023-03-05T13:38:40.640Z,3.33
2023-03-05T13:41:16.920Z,4.35
2023-03-05T13:43:47.713Z,4.20
2023-03-05T13:46:15.134Z,3.70
2023-03-05T13:48:42.225Z,3.30
2023-03-05T13:51:11.844Z,3.70
2023-03-05T13:53:38.918Z,3.42
2023-03-05T13:56:07.013Z,3.60
2023-03-05T13:59:00.988Z,3.55
2023-03-05T14:01:29.336Z,3.22
2023-03-05T14:03:57.831Z,3.40
2023-03-05T14:06:27.078Z,4.30
2023-03-05T14:08:55.096Z,2.85
2023-03-05T14:11:23.104Z,2.95
2023-03-05T14:13:50.291Z,3.30
2023-03-05T14:16:27.943Z,2.83
2023-03-05T14:18:55.083Z,2.75
2023-03-05T14:21:22.200Z,3.10
2023-03-05T14:23:51.541Z,2.80
2023-03-05T14:26:23.604Z,2.97
2023-03-05T14:28:54.287Z,2.97
2023-03-05T14:31:21.383Z,2.80
2023-03-05T14:33:48.394Z,3.22
2023-03-05T14:36:15.530Z,2.72
2023-03-05T14:38:42.690Z,3.00
2023-03-05T14:41:22.870Z,2.88
2023-03-05T14:43:49.955Z,3.10
2023-03-05T14:46:17.656Z,3.03
2023-03-05T14:48:44.768Z,3.40
2023-03-05T14:51:11.905Z,3.20
2023-03-05T14:53:45.676Z,3.20
2023-03-05T14:56:23.311Z,3.28
2023-03-05T14:58:50.400Z,4.13
2023-03-05T15:01:17.681Z,3.78
2023-03-05T15:03:44.844Z,4.35
2023-03-05T15:06:36.137Z,4.95
2023-03-05T15:09:04.013Z,4.50
2023-03-05T15:11:31.195Z,5.13
2023-03-05T15:13:58.309Z,4.55
2023-03-05T15:16:25.408Z,4.82
2023-03-05T15:18:52.532Z,5.13
2023-03-05T15:21:19.574Z,5.18
2023-03-05T15:23:46.683Z,5.20
2023-03-05T15:26:14.198Z,5.35
2023-03-05T15:28:41.326Z,6.30
2023-03-05T15:31:08.467Z,6.78
2023-03-05T15:33:35.558Z,5.78
2023-03-05T15:36:02.712Z,5.85
2023-03-05T15:38:29.740Z,6.00
2023-03-05T15:40:56.840Z,6.10
2023-03-05T15:43:23.959Z,5.90
2023-03-05T15:45:51.013Z,6.05
2023-03-05T15:48:18.073Z,6.80
2023-03-05T15:50:45.409Z,6.93
2023-03-05T15:53:12.758Z,7.32
2023-03-05T15:55:40.134Z,6.78
2023-03-05T15:58:07.252Z,7.25
2023-03-05T16:00:34.827Z,7.10
2023-03-05T16:03:01.999Z,6.93
2023-03-05T16:05:29.142Z,6.65
2023-03-05T16:07:56.213Z,6.80
2023-03-05T16:10:25.217Z,7.20
2023-03-05T16:12:54.094Z,7.20
2023-03-05T16:15:21.192Z,6.82
2023-03-05T16:17:49.081Z,6.85
2023-03-05T16:20:16.307Z,7.07
2023-03-05T16:22:43.384Z,6.70
2023-03-05T16:25:10.418Z,7.20
2023-03-05T16:27:37.474Z,6.68
2023-03-05T16:30:05.146Z,7.35
2023-03-05T16:32:32.203Z,7.32
2023-03-05T16:34:59.263Z,7.25
2023-03-05T16:37:26.383Z,7.47
2023-03-05T16:39:53.468Z,7.35
2023-03-05T16:42:20.546Z,6.85
2023-03-05T16:44:49.811Z,7.22
2023-03-05T16:47:16.962Z,7.15
2023-03-05T16:49:44.032Z,6.90
2023-03-05T16:52:18.796Z,8.35
2023-03-05T16:54:46.856Z,7.22
2023-03-05T16:57:13.969Z,7.40
2023-03-05T16:59:41.169Z,7.00
2023-03-05T17:02:08.526Z,7.50
2023-03-05T17:04:35.632Z,7.80
2023-03-05T17:07:04.110Z,7.30
2023-03-05T17:09:31.261Z,7.40
2023-03-05T17:11:58.339Z,7.90
2023-03-05T17:14:25.454Z,7.80
2023-03-05T17:16:52.492Z,7.95
2023-03-05T17:19:19.537Z,7.90
2023-03-05T17:21:50.528Z,7.38
2023-03-05T17:24:17.597Z,8.60
2023-03-05T17:26:44.760Z,8.98
2023-03-05T17:29:11.820Z,8.30
2023-03-05T17:31:39.039Z,8.55
2023-03-05T17:34:06.192Z,8.60
2023-03-05T17:36:33.346Z,8.45
2023-03-05T17:39:00.406Z,9.30
2023-03-05T17:41:27.496Z,8.73
2023-03-05T17:43:54.516Z,9.13
2023-03-05T17:46:21.581Z,8.88
2023-03-05T17:48:48.818Z,7.90
2023-03-05T17:51:16.695Z,18.73
2023-03-05T17:53:43.853Z,8.77
2023-03-05T17:56:11.346Z,9.45
2023-03-05T17:58:38.493Z,9.57
2023-03-05T18:01:05.823Z,9.25
2023-03-05T18:03:32.863Z,9.52
2023-03-05T18:05:59.897Z,8.98
2023-03-05T18:08:26.978Z,9.27
2023-03-05T18:10:54.229Z,9.75
2023-03-05T18:13:21.283Z,9.52
2023-03-05T18:15:48.351Z,9.25
2023-03-05T18:18:16.086Z,9.15
2023-03-05T18:20:43.300Z,9.32
2023-03-05T18:23:10.348Z,8.93
2023-03-05T18:25:37.406Z,9.38
2023-03-05T18:28:07.233Z,9.10
2023-03-05T18:30:34.479Z,9.88
2023-03-05T18:33:01.588Z,10.10
2023-03-05T18:35:32.192Z,9.65
2023-03-05T18:37:59.379Z,8.90
2023-03-05T18:40:27.072Z,9.68
2023-03-05T18:42:54.206Z,15.00
2023-03-05T18:45:21.738Z,11.48
2023-03-05T18:47:53.891Z,12.27
2023-03-05T18:50:21.042Z,10.38
2023-03-05T18:52:48.072Z,10.02
2023-03-05T18:55:18.941Z,10.30
2023-03-05T18:57:46.161Z,10.18
2023-03-05T19:00:17.070Z,8.73
2023-03-05T19:02:44.118Z,8.88
2023-03-05T19:05:11.364Z,9.18
2023-03-05T19:07:38.465Z,8.85
2023-03-05T19:10:09.831Z,9.23
2023-03-05T19:12:45.139Z,9.00
2023-03-05T19:15:12.509Z,9.85
2023-03-05T19:17:39.524Z,9.45
2023-03-05T19:20:07.785Z,9.63
2023-03-05T19:22:34.942Z,8.80
2023-03-05T19:25:02.169Z,8.63
2023-03-05T19:27:29.220Z,9.52
2023-03-05T19:29:56.356Z,8.55
2023-03-05T19:32:23.971Z,8.73
2023-03-05T19:34:51.126Z,8.88
2023-03-05T19:37:18.205Z,9.43
2023-03-05T19:39:45.380Z,14.90
2023-03-05T19:42:12.460Z,9.02
2023-03-05T19:44:39.529Z,9.30
2023-03-05T19:47:06.694Z,9.05
2023-03-05T19:49:33.779Z,9.02
2023-03-05T19:52:00.936Z,9.00
2023-03-05T19:54:28.002Z,8.52
2023-03-05T19:56:55.770Z,8.75
2023-03-05T19:59:25.008Z,9.50
2023-03-05T20:01:52.160Z,9.35
2023-03-05T20:04:20.285Z,9.02
2023-03-05T20:06:47.575Z,9.13
2023-03-05T20:09:14.897Z,9.35
2023-03-05T20:11:41.925Z,9.07
2023-03-05T20:14:09.313Z,9.15
2023-03-05T20:16:37.558Z,10.05
2023-03-05T20:19:05.275Z,11.65
2023-03-05T20:21:34.145Z,12.13
2023-03-05T20:24:02.931Z,10.98
2023-03-05T20:26:30.056Z,10.38
2023-03-05T20:28:57.418Z,9.80
2023-03-05T20:31:25.687Z,9.85
2023-03-05T20:33:52.796Z,11.20
2023-03-05T20:36:19.949Z,9.93
2023-03-05T20:38:46.990Z,8.95
2023-03-05T20:41:15.043Z,8.88
2023-03-05T20:43:44.583Z,9.32
2023-03-05T20:46:18.888Z,9.25
2023-03-05T20:48:47.992Z,9.55
2023-03-05T20:51:16.547Z,8.43
2023-03-05T20:53:43.577Z,9.00
2023-03-05T20:56:10.650Z,10.75
2023-03-05T20:58:38.211Z,9.75
2023-03-05T21:01:05.420Z,10.80
2023-03-05T21:03:32.635Z,9.57
2023-03-05T21:05:59.798Z,10.23
2023-03-05T21:08:27.346Z,9.82
2023-03-05T21:10:54.434Z,10.30
2023-03-05T21:13:21.745Z,9.55
2023-03-05T21:15:48.837Z,11.07
2023-03-05T21:18:15.905Z,9.88
2023-03-05T21:20:43.040Z,10.50
2023-03-05T21:23:10.142Z,9.80
2023-03-05T21:25:37.334Z,10.40
2023-03-05T21:28:08.404Z,9.73
2023-03-05T21:30:36.540Z,10.52
2023-03-05T21:33:04.707Z,9.50
2023-03-05T21:35:34.857Z,9.85
2023-03-05T21:38:02.366Z,9.52
2023-03-05T21:40:29.547Z,10.00
2023-03-05T21:42:56.692Z,9.65
2023-03-05T21:45:24.559Z,10.57
2023-03-05T21:47:52.588Z,10.20
2023-03-05T21:50:20.266Z,10.73
2023-03-05T21:52:47.533Z,10.77
2023-03-05T21:55:15.449Z,10.82
2023-03-05T21:57:42.566Z,10.95
2023-03-05T22:00:11.024Z,11.18
2023-03-05T22:02:38.121Z,12.02
2023-03-05T22:05:06.310Z,10.25
2023-03-05T22:07:33.451Z,10.90
2023-03-05T22:10:00.504Z,11.88
2023-03-05T22:12:47.719Z,12.07
2023-03-05T22:15:14.764Z,11.80
2023-03-05T22:17:41.820Z,11.35
2023-03-05T22:20:09.196Z,11.75
2023-03-05T22:22:36.459Z,12.45
2023-03-05T22:25:04.013Z,12.88
2023-03-05T22:27:31.230Z,13.32
2023-03-05T22:29:58.317Z,12.77
2023-03-05T22:32:25.407Z,12.70
2023-03-05T22:34:56.268Z,12.95
2023-03-05T22:37:23.340Z,13.75
2023-03-05T22:39:53.863Z,14.25
2023-03-05T22:42:20.913Z,14.02
2023-03-05T22:44:48.105Z,14.45
2023-03-05T22:47:15.292Z,14.32
2023-03-05T22:49:42.353Z,13.90
2023-03-05T22:52:09.412Z,14.15
2023-03-05T22:54:36.424Z,14.27
2023-03-05T22:57:03.581Z,14.73
2023-03-05T22:59:30.627Z,14.05
2023-03-05T23:01:57.681Z,14.88
2023-03-05T23:04:40.076Z,14.55
2023-03-05T23:07:07.331Z,15.07
2023-03-05T23:09:34.396Z,15.32
2023-03-05T23:12:01.491Z,14.32
2023-03-05T23:14:28.580Z,14.88
2023-03-05T23:16:55.624Z,14.68
2023-03-05T23:19:22.699Z,14.90
2023-03-05T23:21:49.784Z,14.25
2023-03-05T23:24:16.817Z,15.10
2023-03-05T23:26:43.850Z,15.48
2023-03-05T23:29:10.879Z,14.90
2023-03-05T23:31:38.108Z,14.52
2023-03-05T23:34:05.221Z,15.23
2023-03-05T23:36:32.276Z,15.35
2023-03-05T23:38:59.415Z,15.18
2023-03-05T23:41:26.503Z,14.90
2023-03-05T23:43:53.590Z,16.20
2023-03-05T23:46:20.661Z,15.30
2023-03-05T23:48:47.796Z,17.35
2023-03-05T23:51:14.982Z,16.58
2023-03-05T23:53:42.074Z,17.48
2023-03-05T23:56:10.185Z,17.48
2023-03-05T23:58:37.520Z,16.42
